sensor_id;sensor_type;location;lat;lon;timestamp;temperature;humidity
60717;DHT22;46566;52.700;6.192;2022-08-24T00:02:22;21.50;99.90
60717;DHT22;46566;52.700;6.192;2022-08-24T00:04:49;21.50;99.90
60717;DHT22;46566;52.700;6.192;2022-08-24T00:07:15;21.40;99.90
60717;DHT22;46566;52.700;6.192;2022-08-24T00:09:42;21.40;99.90
60717;DHT22;46566;52.700;6.192;2022-08-24T00:12:07;21.30;99.90
60717;DHT22;46566;52.700;6.192;2022-08-24T00:14:34;21.30;99.90
60717;DHT22;46566;52.700;6.192;2022-08-24T00:17:00;21.30;99.90
60717;DHT22;46566;52.700;6.192;2022-08-24T00:19:27;21.20;99.90
60717;DHT22;46566;52.700;6.192;2022-08-24T00:21:53;21.20;99.90
60717;DHT22;46566;52.700;6.192;2022-08-24T00:24:19;21.30;99.90
60717;DHT22;46566;52.700;6.192;2022-08-24T00:26:45;21.20;99.90
60717;DHT22;46566;52.700;6.192;2022-08-24T00:29:16;21.20;99.90
60717;DHT22;46566;52.700;6.192;2022-08-24T00:31:42;21.10;99.90
60717;DHT22;46566;52.700;6.192;2022-08-24T00:34:07;21.10;99.90
60717;DHT22;46566;52.700;6.192;2022-08-24T00:36:34;21.00;99.90
60717;DHT22;46566;52.700;6.192;2022-08-24T00:39:00;21.00;99.90
60717;DHT22;46566;52.700;6.192;2022-08-24T00:41:27;21.00;99.90
60717;DHT22;46566;52.700;6.192;2022-08-24T00:43:56;21.00;99.90
60717;DHT22;46566;52.700;6.192;2022-08-24T00:46:27;21.00;99.90
60717;DHT22;46566;52.700;6.192;2022-08-24T00:49:04;21.00;99.90
60717;DHT22;46566;52.700;6.192;2022-08-24T00:51:36;21.00;99.90
60717;DHT22;46566;52.700;6.192;2022-08-24T00:54:07;21.00;99.90
60717;DHT22;46566;52.700;6.192;2022-08-24T00:56:38;20.90;99.90
60717;DHT22;46566;52.700;6.192;2022-08-24T00:59:13;20.90;99.90
60717;DHT22;46566;52.700;6.192;2022-08-24T01:01:41;20.90;99.90
60717;DHT22;46566;52.700;6.192;2022-08-24T01:04:13;20.90;99.90
60717;DHT22;46566;52.700;6.192;2022-08-24T01:06:41;20.90;99.90
60717;DHT22;46566;52.700;6.192;2022-08-24T01:09:07;20.90;99.90
60717;DHT22;46566;52.700;6.192;2022-08-24T01:11:33;20.80;99.90
60717;DHT22;46566;52.700;6.192;2022-08-24T01:14:02;20.80;99.90
60717;DHT22;46566;52.700;6.192;2022-08-24T01:16:29;20.70;99.90
60717;DHT22;46566;52.700;6.192;2022-08-24T01:24:59;20.70;99.90
60717;DHT22;46566;52.700;6.192;2022-08-24T01:27:25;20.70;99.90
60717;DHT22;46566;52.700;6.192;2022-08-24T01:29:52;20.60;99.90
60717;DHT22;46566;52.700;6.192;2022-08-24T01:32:22;20.60;99.90
60717;DHT22;46566;52.700;6.192;2022-08-24T01:34:48;20.60;99.90
60717;DHT22;46566;52.700;6.192;2022-08-24T01:37:14;20.50;99.90
60717;DHT22;46566;52.700;6.192;2022-08-24T01:39:43;20.50;99.90
60717;DHT22;46566;52.700;6.192;2022-08-24T01:42:10;20.50;99.90
60717;DHT22;46566;52.700;6.192;2022-08-24T01:44:38;20.40;99.90
60717;DHT22;46566;52.700;6.192;2022-08-24T01:47:06;20.40;99.90
60717;DHT22;46566;52.700;6.192;2022-08-24T01:49:36;20.40;99.90
60717;DHT22;46566;52.700;6.192;2022-08-24T01:52:03;20.40;99.90
60717;DHT22;46566;52.700;6.192;2022-08-24T01:54:31;20.30;99.90
60717;DHT22;46566;52.700;6.192;2022-08-24T01:56:58;20.30;99.90
60717;DHT22;46566;52.700;6.192;2022-08-24T01:59:25;20.30;99.90
60717;DHT22;46566;52.700;6.192;2022-08-24T02:01:56;20.20;99.90
60717;DHT22;46566;52.700;6.192;2022-08-24T02:04:23;20.20;99.90
60717;DHT22;46566;52.700;6.192;2022-08-24T02:06:49;20.20;99.90
60717;DHT22;46566;52.700;6.192;2022-08-24T02:09:16;20.10;99.90
60717;DHT22;46566;52.700;6.192;2022-08-24T02:11:42;20.20;99.90
60717;DHT22;46566;52.700;6.192;2022-08-24T02:14:10;20.20;99.90
60717;DHT22;46566;52.700;6.192;2022-08-24T02:16:36;20.10;99.90
60717;DHT22;46566;52.700;6.192;2022-08-24T02:19:03;20.20;99.90
60717;DHT22;46566;52.700;6.192;2022-08-24T02:21:28;20.10;99.90
60717;DHT22;46566;52.700;6.192;2022-08-24T02:23:54;20.10;99.90
60717;DHT22;46566;52.700;6.192;2022-08-24T02:26:20;20.10;99.90
60717;DHT22;46566;52.700;6.192;2022-08-24T02:28:46;20.10;99.90
60717;DHT22;46566;52.700;6.192;2022-08-24T02:31:12;20.10;99.90
60717;DHT22;46566;52.700;6.192;2022-08-24T02:33:39;20.10;99.90
60717;DHT22;46566;52.700;6.192;2022-08-24T02:36:06;20.00;99.90
60717;DHT22;46566;52.700;6.192;2022-08-24T02:38:32;20.00;99.90
60717;DHT22;46566;52.700;6.192;2022-08-24T02:40:58;20.00;99.90
60717;DHT22;46566;52.700;6.192;2022-08-24T02:43:25;20.00;99.90
60717;DHT22;46566;52.700;6.192;2022-08-24T02:45:51;20.00;99.90
60717;DHT22;46566;52.700;6.192;2022-08-24T02:48:20;19.90;99.90
60717;DHT22;46566;52.700;6.192;2022-08-24T02:50:48;19.90;99.90
60717;DHT22;46566;52.700;6.192;2022-08-24T02:53:15;19.90;99.90
60717;DHT22;46566;52.700;6.192;2022-08-24T02:55:43;19.90;99.90
60717;DHT22;46566;52.700;6.192;2022-08-24T02:58:14;19.80;99.90
60717;DHT22;46566;52.700;6.192;2022-08-24T03:00:43;19.80;99.90
60717;DHT22;46566;52.700;6.192;2022-08-24T03:03:09;19.90;99.90
60717;DHT22;46566;52.700;6.192;2022-08-24T03:05:36;19.80;99.90
60717;DHT22;46566;52.700;6.192;2022-08-24T03:08:02;19.80;99.90
60717;DHT22;46566;52.700;6.192;2022-08-24T03:10:29;19.80;99.90
60717;DHT22;46566;52.700;6.192;2022-08-24T03:12:56;19.80;99.90
60717;DHT22;46566;52.700;6.192;2022-08-24T03:15:24;19.70;99.90
60717;DHT22;46566;52.700;6.192;2022-08-24T03:17:50;19.70;99.90
60717;DHT22;46566;52.700;6.192;2022-08-24T03:20:18;19.70;99.90
60717;DHT22;46566;52.700;6.192;2022-08-24T03:22:45;19.70;99.90
60717;DHT22;46566;52.700;6.192;2022-08-24T03:25:13;19.70;99.90
60717;DHT22;46566;52.700;6.192;2022-08-24T03:27:40;19.60;99.90
60717;DHT22;46566;52.700;6.192;2022-08-24T03:30:07;19.60;99.90
60717;DHT22;46566;52.700;6.192;2022-08-24T03:32:34;19.50;99.90
60717;DHT22;46566;52.700;6.192;2022-08-24T03:35:00;19.50;99.90
60717;DHT22;46566;52.700;6.192;2022-08-24T03:37:27;19.50;99.90
60717;DHT22;46566;52.700;6.192;2022-08-24T03:39:52;19.50;99.90
60717;DHT22;46566;52.700;6.192;2022-08-24T03:42:18;19.50;99.90
60717;DHT22;46566;52.700;6.192;2022-08-24T03:44:44;19.50;99.90
60717;DHT22;46566;52.700;6.192;2022-08-24T03:47:10;19.50;99.90
60717;DHT22;46566;52.700;6.192;2022-08-24T03:49:38;19.60;99.90
60717;DHT22;46566;52.700;6.192;2022-08-24T03:52:05;19.60;99.90
60717;DHT22;46566;52.700;6.192;2022-08-24T03:54:32;19.50;99.90
60717;DHT22;46566;52.700;6.192;2022-08-24T03:56:58;19.50;99.90
60717;DHT22;46566;52.700;6.192;2022-08-24T03:59:24;19.50;99.90
60717;DHT22;46566;52.700;6.192;2022-08-24T04:01:53;19.50;99.90
60717;DHT22;46566;52.700;6.192;2022-08-24T04:04:21;19.40;99.90
60717;DHT22;46566;52.700;6.192;2022-08-24T04:06:47;19.40;99.90
60717;DHT22;46566;52.700;6.192;2022-08-24T04:09:14;19.40;99.90
60717;DHT22;46566;52.700;6.192;2022-08-24T04:11:44;19.40;99.90
60717;DHT22;46566;52.700;6.192;2022-08-24T04:14:12;19.40;99.90
60717;DHT22;46566;52.700;6.192;2022-08-24T04:16:41;19.30;99.90
60717;DHT22;46566;52.700;6.192;2022-08-24T04:19:14;19.40;99.90
60717;DHT22;46566;52.700;6.192;2022-08-24T04:21:40;19.30;99.90
60717;DHT22;46566;52.700;6.192;2022-08-24T04:24:09;19.30;99.90
60717;DHT22;46566;52.700;6.192;2022-08-24T04:26:38;19.30;99.90
60717;DHT22;46566;52.700;6.192;2022-08-24T04:29:06;19.30;99.90
60717;DHT22;46566;52.700;6.192;2022-08-24T04:31:38;19.30;99.90
60717;DHT22;46566;52.700;6.192;2022-08-24T04:34:04;19.30;99.90
60717;DHT22;46566;52.700;6.192;2022-08-24T04:36:31;19.30;99.90
60717;DHT22;46566;52.700;6.192;2022-08-24T04:38:57;19.30;99.90
60717;DHT22;46566;52.700;6.192;2022-08-24T04:41:45;19.30;99.90
60717;DHT22;46566;52.700;6.192;2022-08-24T04:44:13;19.30;99.90
60717;DHT22;46566;52.700;6.192;2022-08-24T04:46:39;19.30;99.90
60717;DHT22;46566;52.700;6.192;2022-08-24T04:49:07;19.30;99.90
60717;DHT22;46566;52.700;6.192;2022-08-24T04:51:34;19.30;99.90
60717;DHT22;46566;52.700;6.192;2022-08-24T04:53:59;19.30;99.90
60717;DHT22;46566;52.700;6.192;2022-08-24T04:56:26;19.30;99.90
60717;DHT22;46566;52.700;6.192;2022-08-24T04:58:55;19.30;99.90
60717;DHT22;46566;52.700;6.192;2022-08-24T05:01:23;19.30;99.90
60717;DHT22;46566;52.700;6.192;2022-08-24T05:03:51;19.30;99.90
60717;DHT22;46566;52.700;6.192;2022-08-24T05:06:23;19.30;99.90
60717;DHT22;46566;52.700;6.192;2022-08-24T05:08:50;19.30;99.90
60717;DHT22;46566;52.700;6.192;2022-08-24T05:11:17;19.30;99.90
60717;DHT22;46566;52.700;6.192;2022-08-24T05:13:43;19.30;99.90
60717;DHT22;46566;52.700;6.192;2022-08-24T05:16:12;19.30;99.90
60717;DHT22;46566;52.700;6.192;2022-08-24T05:18:38;19.30;99.90
60717;DHT22;46566;52.700;6.192;2022-08-24T05:23:56;19.30;99.90
60717;DHT22;46566;52.700;6.192;2022-08-24T05:26:26;19.30;99.90
60717;DHT22;46566;52.700;6.192;2022-08-24T05:29:18;19.30;99.90
60717;DHT22;46566;52.700;6.192;2022-08-24T05:31:48;19.30;99.90
60717;DHT22;46566;52.700;6.192;2022-08-24T05:34:15;19.30;99.90
60717;DHT22;46566;52.700;6.192;2022-08-24T05:36:41;19.40;99.90
60717;DHT22;46566;52.700;6.192;2022-08-24T05:39:26;19.40;99.90
60717;DHT22;46566;52.700;6.192;2022-08-24T05:41:54;19.40;99.90
60717;DHT22;46566;52.700;6.192;2022-08-24T05:44:24;19.40;99.90
60717;DHT22;46566;52.700;6.192;2022-08-24T05:47:17;19.40;99.90
60717;DHT22;46566;52.700;6.192;2022-08-24T05:49:43;19.30;99.90
60717;DHT22;46566;52.700;6.192;2022-08-24T05:52:09;19.30;99.90
60717;DHT22;46566;52.700;6.192;2022-08-24T05:54:35;19.40;99.90
60717;DHT22;46566;52.700;6.192;2022-08-24T05:59:47;19.40;99.90
60717;DHT22;46566;52.700;6.192;2022-08-24T06:02:17;19.50;99.90
60717;DHT22;46566;52.700;6.192;2022-08-24T06:04:44;19.50;99.90
60717;DHT22;46566;52.700;6.192;2022-08-24T06:07:35;19.50;99.90
60717;DHT22;46566;52.700;6.192;2022-08-24T06:10:02;19.60;99.90
60717;DHT22;46566;52.700;6.192;2022-08-24T06:18:14;19.70;99.90
60717;DHT22;46566;52.700;6.192;2022-08-24T06:21:09;19.80;99.90
60717;DHT22;46566;52.700;6.192;2022-08-24T06:26:04;19.90;99.90
60717;DHT22;46566;52.700;6.192;2022-08-24T06:29:14;19.90;99.90
60717;DHT22;46566;52.700;6.192;2022-08-24T06:31:45;20.00;99.90
60717;DHT22;46566;52.700;6.192;2022-08-24T06:37:08;20.10;99.90
60717;DHT22;46566;52.700;6.192;2022-08-24T06:39:34;20.10;99.90
60717;DHT22;46566;52.700;6.192;2022-08-24T06:42:01;20.20;99.90
60717;DHT22;46566;52.700;6.192;2022-08-24T06:51:12;20.40;99.90
60717;DHT22;46566;52.700;6.192;2022-08-24T06:53:39;20.50;99.90
60717;DHT22;46566;52.700;6.192;2022-08-24T06:59:04;20.60;99.90
60717;DHT22;46566;52.700;6.192;2022-08-24T07:04:30;20.70;99.90
60717;DHT22;46566;52.700;6.192;2022-08-24T07:07:15;20.80;99.90
60717;DHT22;46566;52.700;6.192;2022-08-24T07:15:05;21.00;99.90
60717;DHT22;46566;52.700;6.192;2022-08-24T07:17:31;21.10;99.90
60717;DHT22;46566;52.700;6.192;2022-08-24T07:19:57;21.10;99.90
60717;DHT22;46566;52.700;6.192;2022-08-24T07:22:48;21.10;99.90
60717;DHT22;46566;52.700;6.192;2022-08-24T07:25:14;21.20;99.90
60717;DHT22;46566;52.700;6.192;2022-08-24T07:27:40;21.30;99.90
60717;DHT22;46566;52.700;6.192;2022-08-24T07:38:56;21.60;99.90
60717;DHT22;46566;52.700;6.192;2022-08-24T07:44:17;21.90;99.90
60717;DHT22;46566;52.700;6.192;2022-08-24T07:46:43;21.90;99.90
60717;DHT22;46566;52.700;6.192;2022-08-24T07:49:11;22.10;99.90
60717;DHT22;46566;52.700;6.192;2022-08-24T07:57:28;22.40;99.90
60717;DHT22;46566;52.700;6.192;2022-08-24T07:59:57;22.60;99.90
60717;DHT22;46566;52.700;6.192;2022-08-24T08:02:24;22.90;99.90
60717;DHT22;46566;52.700;6.192;2022-08-24T08:04:53;23.50;99.90
60717;DHT22;46566;52.700;6.192;2022-08-24T08:13:16;27.30;99.90
60717;DHT22;46566;52.700;6.192;2022-08-24T08:15:43;28.20;98.30
60717;DHT22;46566;52.700;6.192;2022-08-24T08:23:54;29.90;85.30
60717;DHT22;46566;52.700;6.192;2022-08-24T08:32:49;32.30;66.60
60717;DHT22;46566;52.700;6.192;2022-08-24T08:35:15;32.80;65.40
60717;DHT22;46566;52.700;6.192;2022-08-24T08:56:21;33.90;59.00
60717;DHT22;46566;52.700;6.192;2022-08-24T09:23:24;36.60;48.00
60717;DHT22;46566;52.700;6.192;2022-08-24T09:26:07;36.00;52.00
60717;DHT22;46566;52.700;6.192;2022-08-24T09:28:53;34.60;51.50
60717;DHT22;46566;52.700;6.192;2022-08-24T09:34:36;33.00;54.20
60717;DHT22;46566;52.700;6.192;2022-08-24T09:37:17;32.90;54.40
60717;DHT22;46566;52.700;6.192;2022-08-24T10:31:06;31.90;57.20
60717;DHT22;46566;52.700;6.192;2022-08-24T10:42:43;32.30;57.40
60717;DHT22;46566;52.700;6.192;2022-08-24T10:51:46;32.30;58.40
60717;DHT22;46566;52.700;6.192;2022-08-24T10:54:32;32.30;57.20
60717;DHT22;46566;52.700;6.192;2022-08-24T10:57:04;32.10;56.10
60717;DHT22;46566;52.700;6.192;2022-08-24T11:02:38;32.10;56.00
60717;DHT22;46566;52.700;6.192;2022-08-24T11:08:06;32.00;56.80
60717;DHT22;46566;52.700;6.192;2022-08-24T11:10:36;32.20;56.80
60717;DHT22;46566;52.700;6.192;2022-08-24T11:21:57;32.20;56.10
60717;DHT22;46566;52.700;6.192;2022-08-24T11:24:52;32.50;56.70
60717;DHT22;46566;52.700;6.192;2022-08-24T11:30:24;32.70;56.20
60717;DHT22;46566;52.700;6.192;2022-08-24T11:32:59;32.80;55.10
60717;DHT22;46566;52.700;6.192;2022-08-24T11:40:59;33.30;55.80
60717;DHT22;46566;52.700;6.192;2022-08-24T11:52:07;33.40;52.30
60717;DHT22;46566;52.700;6.192;2022-08-24T11:57:43;33.60;54.00
60717;DHT22;46566;52.700;6.192;2022-08-24T12:00:20;33.90;53.90
60717;DHT22;46566;52.700;6.192;2022-08-24T12:14:46;34.40;50.50
60717;DHT22;46566;52.700;6.192;2022-08-24T12:23:39;34.50;53.00
60717;DHT22;46566;52.700;6.192;2022-08-24T12:26:21;34.40;50.40
60717;DHT22;46566;52.700;6.192;2022-08-24T12:29:29;34.20;50.80
60717;DHT22;46566;52.700;6.192;2022-08-24T12:32:18;34.00;54.20
60717;DHT22;46566;52.700;6.192;2022-08-24T12:37:34;33.90;52.70
60717;DHT22;46566;52.700;6.192;2022-08-24T12:43:04;34.10;51.60
60717;DHT22;46566;52.700;6.192;2022-08-24T12:45:56;33.80;52.00
60717;DHT22;46566;52.700;6.192;2022-08-24T12:48:38;33.60;53.00
60717;DHT22;46566;52.700;6.192;2022-08-24T12:57:14;34.60;50.10
60717;DHT22;46566;52.700;6.192;2022-08-24T13:05:45;35.00;50.20
60717;DHT22;46566;52.700;6.192;2022-08-24T13:08:43;34.90;50.20
60717;DHT22;46566;52.700;6.192;2022-08-24T13:11:26;34.70;48.90
60717;DHT22;46566;52.700;6.192;2022-08-24T13:14:27;34.80;49.20
60717;DHT22;46566;52.700;6.192;2022-08-24T13:19:41;35.10;49.20
60717;DHT22;46566;52.700;6.192;2022-08-24T13:28:07;35.60;48.50
60717;DHT22;46566;52.700;6.192;2022-08-24T13:57:33;36.00;48.30
60717;DHT22;46566;52.700;6.192;2022-08-24T14:03:40;35.80;48.40
60717;DHT22;46566;52.700;6.192;2022-08-24T14:12:10;35.70;47.60
60717;DHT22;46566;52.700;6.192;2022-08-24T14:29:28;35.30;48.60
60717;DHT22;46566;52.700;6.192;2022-08-24T14:34:41;35.50;47.90
60717;DHT22;46566;52.700;6.192;2022-08-24T14:37:58;35.50;48.30
60717;DHT22;46566;52.700;6.192;2022-08-24T14:46:28;35.30;48.10
60717;DHT22;46566;52.700;6.192;2022-08-24T14:49:08;35.40;48.20
60717;DHT22;46566;52.700;6.192;2022-08-24T14:51:59;35.50;47.90
60717;DHT22;46566;52.700;6.192;2022-08-24T15:00:24;35.60;48.20
60717;DHT22;46566;52.700;6.192;2022-08-24T15:05:38;35.30;47.70
60717;DHT22;46566;52.700;6.192;2022-08-24T15:08:31;35.20;48.00
60717;DHT22;46566;52.700;6.192;2022-08-24T15:11:17;34.90;48.10
60717;DHT22;46566;52.700;6.192;2022-08-24T15:14:05;34.70;48.90
60717;DHT22;46566;52.700;6.192;2022-08-24T15:19:31;34.40;49.20
60717;DHT22;46566;52.700;6.192;2022-08-24T15:24:44;34.40;49.40
60717;DHT22;46566;52.700;6.192;2022-08-24T15:27:51;34.30;49.40
60717;DHT22;46566;52.700;6.192;2022-08-24T15:30:52;34.20;50.00
60717;DHT22;46566;52.700;6.192;2022-08-24T15:33:19;34.10;49.90
60717;DHT22;46566;52.700;6.192;2022-08-24T15:35:47;34.00;49.90
60717;DHT22;46566;52.700;6.192;2022-08-24T15:38:37;33.90;50.20
60717;DHT22;46566;52.700;6.192;2022-08-24T15:41:13;33.90;50.50
60717;DHT22;46566;52.700;6.192;2022-08-24T15:46:35;33.50;50.80
60717;DHT22;46566;52.700;6.192;2022-08-24T15:55:32;33.30;51.60
60717;DHT22;46566;52.700;6.192;2022-08-24T15:58:30;33.10;52.10
60717;DHT22;46566;52.700;6.192;2022-08-24T16:10:51;32.60;53.40
60717;DHT22;46566;52.700;6.192;2022-08-24T16:16:02;32.40;55.20
60717;DHT22;46566;52.700;6.192;2022-08-24T16:18:57;32.20;56.20
60717;DHT22;46566;52.700;6.192;2022-08-24T16:22:04;32.10;57.30
60717;DHT22;46566;52.700;6.192;2022-08-24T16:24:36;32.00;58.20
60717;DHT22;46566;52.700;6.192;2022-08-24T16:27:10;31.80;58.60
60717;DHT22;46566;52.700;6.192;2022-08-24T16:30:03;31.70;59.00
60717;DHT22;46566;52.700;6.192;2022-08-24T16:32:52;31.60;59.40
60717;DHT22;46566;52.700;6.192;2022-08-24T16:35:44;31.50;59.50
60717;DHT22;46566;52.700;6.192;2022-08-24T16:38:10;31.40;60.30
60717;DHT22;46566;52.700;6.192;2022-08-24T16:40:35;31.40;60.10
60717;DHT22;46566;52.700;6.192;2022-08-24T16:43:02;31.30;60.20
60717;DHT22;46566;52.700;6.192;2022-08-24T16:45:53;31.30;59.90
60717;DHT22;46566;52.700;6.192;2022-08-24T16:48:19;31.20;59.90
60717;DHT22;46566;52.700;6.192;2022-08-24T16:50:45;31.10;59.90
60717;DHT22;46566;52.700;6.192;2022-08-24T16:53:11;31.10;60.10
60717;DHT22;46566;52.700;6.192;2022-08-24T16:56:02;31.00;60.10
60717;DHT22;46566;52.700;6.192;2022-08-24T16:58:31;31.00;59.90
60717;DHT22;46566;52.700;6.192;2022-08-24T17:03:53;31.00;60.10
60717;DHT22;46566;52.700;6.192;2022-08-24T17:06:20;30.90;59.90
60717;DHT22;46566;52.700;6.192;2022-08-24T17:08:46;30.90;60.20
60717;DHT22;46566;52.700;6.192;2022-08-24T17:11:13;30.90;60.40
60717;DHT22;46566;52.700;6.192;2022-08-24T17:14:04;30.80;60.60
60717;DHT22;46566;52.700;6.192;2022-08-24T17:16:31;30.90;60.80
60717;DHT22;46566;52.700;6.192;2022-08-24T17:18:57;30.80;61.50
60717;DHT22;46566;52.700;6.192;2022-08-24T17:21:42;30.70;61.70
60717;DHT22;46566;52.700;6.192;2022-08-24T17:24:09;30.70;62.50
60717;DHT22;46566;52.700;6.192;2022-08-24T17:26:36;30.60;62.50
60717;DHT22;46566;52.700;6.192;2022-08-24T17:29:04;30.50;62.60
60717;DHT22;46566;52.700;6.192;2022-08-24T17:31:31;30.40;63.10
60717;DHT22;46566;52.700;6.192;2022-08-24T17:34:17;30.30;63.10
60717;DHT22;46566;52.700;6.192;2022-08-24T17:36:50;30.20;63.80
60717;DHT22;46566;52.700;6.192;2022-08-24T17:39:17;30.10;64.30
60717;DHT22;46566;52.700;6.192;2022-08-24T17:44:53;29.90;65.50
60717;DHT22;46566;52.700;6.192;2022-08-24T17:47:44;29.90;66.50
60717;DHT22;46566;52.700;6.192;2022-08-24T17:50:12;29.80;67.40
60717;DHT22;46566;52.700;6.192;2022-08-24T17:55:59;29.60;67.80
60717;DHT22;46566;52.700;6.192;2022-08-24T17:58:25;29.50;68.50
60717;DHT22;46566;52.700;6.192;2022-08-24T18:01:16;29.50;69.40
60717;DHT22;46566;52.700;6.192;2022-08-24T18:03:42;29.40;69.50
60717;DHT22;46566;52.700;6.192;2022-08-24T18:06:08;29.40;70.30
60717;DHT22;46566;52.700;6.192;2022-08-24T18:08:34;29.30;71.10
60717;DHT22;46566;52.700;6.192;2022-08-24T18:11:25;29.20;72.90
60717;DHT22;46566;52.700;6.192;2022-08-24T18:13:51;29.20;73.20
60717;DHT22;46566;52.700;6.192;2022-08-24T18:16:20;29.10;72.90
60717;DHT22;46566;52.700;6.192;2022-08-24T18:18:49;29.00;73.20
60717;DHT22;46566;52.700;6.192;2022-08-24T18:21:40;29.00;73.50
60717;DHT22;46566;52.700;6.192;2022-08-24T18:24:06;29.00;75.40
60717;DHT22;46566;52.700;6.192;2022-08-24T18:26:33;28.90;76.40
60717;DHT22;46566;52.700;6.192;2022-08-24T18:29:18;28.90;76.60
60717;DHT22;46566;52.700;6.192;2022-08-24T18:31:44;28.80;77.50
60717;DHT22;46566;52.700;6.192;2022-08-24T18:34:14;28.80;77.90
60717;DHT22;46566;52.700;6.192;2022-08-24T18:36:40;28.70;79.30
60717;DHT22;46566;52.700;6.192;2022-08-24T18:39:06;28.60;81.10
60717;DHT22;46566;52.700;6.192;2022-08-24T18:41:58;28.50;81.20
60717;DHT22;46566;52.700;6.192;2022-08-24T18:44:25;28.40;82.40
60717;DHT22;46566;52.700;6.192;2022-08-24T18:46:51;28.40;85.50
60717;DHT22;46566;52.700;6.192;2022-08-24T18:49:35;28.30;86.20
60717;DHT22;46566;52.700;6.192;2022-08-24T18:52:02;28.30;87.00
60717;DHT22;46566;52.700;6.192;2022-08-24T18:54:41;28.20;88.10
60717;DHT22;46566;52.700;6.192;2022-08-24T18:57:09;28.20;90.10
60717;DHT22;46566;52.700;6.192;2022-08-24T18:59:36;28.20;89.60
60717;DHT22;46566;52.700;6.192;2022-08-24T19:02:06;28.10;90.90
60717;DHT22;46566;52.700;6.192;2022-08-24T19:04:52;28.00;92.40
60717;DHT22;46566;52.700;6.192;2022-08-24T19:07:20;27.90;92.30
60717;DHT22;46566;52.700;6.192;2022-08-24T19:09:46;27.80;93.40
60717;DHT22;46566;52.700;6.192;2022-08-24T19:12:12;27.70;93.30
60717;DHT22;46566;52.700;6.192;2022-08-24T19:14:49;27.70;95.20
60717;DHT22;46566;52.700;6.192;2022-08-24T19:17:15;27.60;95.90
60717;DHT22;46566;52.700;6.192;2022-08-24T19:19:41;27.60;97.20
60717;DHT22;46566;52.700;6.192;2022-08-24T19:22:07;27.40;97.60
60717;DHT22;46566;52.700;6.192;2022-08-24T19:24:35;27.40;98.00
60717;DHT22;46566;52.700;6.192;2022-08-24T19:27:01;27.20;98.70
60717;DHT22;46566;52.700;6.192;2022-08-24T19:29:26;27.20;99.90
60717;DHT22;46566;52.700;6.192;2022-08-24T19:31:52;27.10;99.90
60717;DHT22;46566;52.700;6.192;2022-08-24T19:34:19;27.00;99.90
60717;DHT22;46566;52.700;6.192;2022-08-24T19:36:44;26.90;99.90
60717;DHT22;46566;52.700;6.192;2022-08-24T19:39:10;26.90;99.90
60717;DHT22;46566;52.700;6.192;2022-08-24T19:41:38;26.90;99.90
60717;DHT22;46566;52.700;6.192;2022-08-24T19:44:06;26.90;99.90
60717;DHT22;46566;52.700;6.192;2022-08-24T19:46:51;26.80;99.90
60717;DHT22;46566;52.700;6.192;2022-08-24T19:49:17;26.80;99.90
60717;DHT22;46566;52.700;6.192;2022-08-24T19:51:43;26.70;99.90
60717;DHT22;46566;52.700;6.192;2022-08-24T19:54:09;26.70;99.90
60717;DHT22;46566;52.700;6.192;2022-08-24T19:56:35;26.60;99.90
60717;DHT22;46566;52.700;6.192;2022-08-24T19:59:06;26.60;99.90
60717;DHT22;46566;52.700;6.192;2022-08-24T20:01:34;26.60;99.90
60717;DHT22;46566;52.700;6.192;2022-08-24T20:04:03;26.50;99.90
60717;DHT22;46566;52.700;6.192;2022-08-24T20:06:29;26.40;99.90
60717;DHT22;46566;52.700;6.192;2022-08-24T20:08:58;26.40;99.90
60717;DHT22;46566;52.700;6.192;2022-08-24T20:11:25;26.40;99.90
60717;DHT22;46566;52.700;6.192;2022-08-24T20:13:52;26.30;99.90
60717;DHT22;46566;52.700;6.192;2022-08-24T20:16:18;26.30;99.90
60717;DHT22;46566;52.700;6.192;2022-08-24T20:18:45;26.30;99.90
60717;DHT22;46566;52.700;6.192;2022-08-24T20:21:11;26.20;99.90
60717;DHT22;46566;52.700;6.192;2022-08-24T20:23:37;26.10;99.90
60717;DHT22;46566;52.700;6.192;2022-08-24T20:26:03;26.10;99.90
60717;DHT22;46566;52.700;6.192;2022-08-24T20:28:38;26.10;99.90
60717;DHT22;46566;52.700;6.192;2022-08-24T20:31:06;26.00;99.90
60717;DHT22;46566;52.700;6.192;2022-08-24T20:33:32;26.00;99.90
60717;DHT22;46566;52.700;6.192;2022-08-24T20:35:58;26.00;99.90
60717;DHT22;46566;52.700;6.192;2022-08-24T20:38:25;25.90;99.90
60717;DHT22;46566;52.700;6.192;2022-08-24T20:40:53;25.90;99.90
60717;DHT22;46566;52.700;6.192;2022-08-24T20:43:22;25.90;99.90
60717;DHT22;46566;52.700;6.192;2022-08-24T20:45:49;25.80;99.90
60717;DHT22;46566;52.700;6.192;2022-08-24T20:48:24;25.70;99.90
60717;DHT22;46566;52.700;6.192;2022-08-24T20:50:51;25.70;99.90
60717;DHT22;46566;52.700;6.192;2022-08-24T20:53:17;25.70;99.90
60717;DHT22;46566;52.700;6.192;2022-08-24T20:55:43;25.60;99.90
60717;DHT22;46566;52.700;6.192;2022-08-24T20:58:09;25.60;99.90
60717;DHT22;46566;52.700;6.192;2022-08-24T21:00:35;25.50;99.90
60717;DHT22;46566;52.700;6.192;2022-08-24T21:03:01;25.50;99.90
60717;DHT22;46566;52.700;6.192;2022-08-24T21:05:27;25.40;99.90
60717;DHT22;46566;52.700;6.192;2022-08-24T21:07:53;25.40;99.90
60717;DHT22;46566;52.700;6.192;2022-08-24T21:10:23;25.40;99.90
60717;DHT22;46566;52.700;6.192;2022-08-24T21:12:50;25.30;99.90
60717;DHT22;46566;52.700;6.192;2022-08-24T21:15:20;25.30;99.90
60717;DHT22;46566;52.700;6.192;2022-08-24T21:17:47;25.20;99.90
60717;DHT22;46566;52.700;6.192;2022-08-24T21:20:13;25.10;99.90
60717;DHT22;46566;52.700;6.192;2022-08-24T21:22:39;25.10;99.90
60717;DHT22;46566;52.700;6.192;2022-08-24T21:25:07;25.10;99.90
60717;DHT22;46566;52.700;6.192;2022-08-24T21:27:36;25.10;99.90
60717;DHT22;46566;52.700;6.192;2022-08-24T21:30:15;25.00;99.90
60717;DHT22;46566;52.700;6.192;2022-08-24T21:32:41;25.00;99.90
60717;DHT22;46566;52.700;6.192;2022-08-24T21:35:25;24.90;99.90
60717;DHT22;46566;52.700;6.192;2022-08-24T21:37:51;24.90;99.90
60717;DHT22;46566;52.700;6.192;2022-08-24T21:40:18;24.80;99.90
60717;DHT22;46566;52.700;6.192;2022-08-24T21:42:44;24.80;99.90
60717;DHT22;46566;52.700;6.192;2022-08-24T21:45:10;24.80;99.90
60717;DHT22;46566;52.700;6.192;2022-08-24T21:47:37;24.70;99.90
60717;DHT22;46566;52.700;6.192;2022-08-24T21:50:06;24.70;99.90
60717;DHT22;46566;52.700;6.192;2022-08-24T21:52:32;24.60;99.90
60717;DHT22;46566;52.700;6.192;2022-08-24T21:54:58;24.70;99.90
60717;DHT22;46566;52.700;6.192;2022-08-24T21:57:26;24.60;99.90
60717;DHT22;46566;52.700;6.192;2022-08-24T21:59:52;24.50;99.90
60717;DHT22;46566;52.700;6.192;2022-08-24T22:02:18;24.40;99.90
60717;DHT22;46566;52.700;6.192;2022-08-24T22:04:45;24.40;99.90
60717;DHT22;46566;52.700;6.192;2022-08-24T22:07:11;24.30;99.90
60717;DHT22;46566;52.700;6.192;2022-08-24T22:09:38;24.10;99.90